createdAt,value
2019-05-21T00:01:55.226Z,13.23
2019-05-21T00:04:28.188Z,13.23
2019-05-21T00:06:53.811Z,13.22
2019-05-21T00:09:22.909Z,13.24
2019-05-21T00:11:52.884Z,13.24
2019-05-21T00:14:22.117Z,13.23
2019-05-21T00:16:52.109Z,13.22
2019-05-21T00:19:20.559Z,13.15
2019-05-21T00:21:50.162Z,13.20
2019-05-21T00:24:18.766Z,13.19
2019-05-21T00:26:47.254Z,13.20
2019-05-21T00:29:51.738Z,13.19
2019-05-21T00:32:56.237Z,13.17
2019-05-21T00:36:00.935Z,13.18
2019-05-21T00:39:05.624Z,13.16
2019-05-21T00:42:05.119Z,13.17
2019-05-21T00:44:43.670Z,13.16
2019-05-21T00:47:13.215Z,13.15
2019-05-21T00:49:43.156Z,13.13
2019-05-21T00:52:11.662Z,13.11
2019-05-21T00:54:40.122Z,13.10
2019-05-21T00:57:08.544Z,13.10
2019-05-21T00:59:36.985Z,13.10
2019-05-21T01:02:05.843Z,13.08
2019-05-21T01:04:35.766Z,13.07
2019-05-21T01:07:04.543Z,13.08
2019-05-21T01:09:33.026Z,12.96
2019-05-21T01:12:01.471Z,13.06
2019-05-21T01:14:29.890Z,13.05
2019-05-21T01:16:58.334Z,13.06
2019-05-21T01:19:26.789Z,13.08
2019-05-21T01:21:55.284Z,13.10
2019-05-21T01:24:23.728Z,13.10
2019-05-21T01:26:52.557Z,13.09
2019-05-21T01:29:21.057Z,13.08
2019-05-21T01:31:49.473Z,13.07
2019-05-21T01:34:18.003Z,13.07
2019-05-21T01:36:46.787Z,13.06
2019-05-21T01:39:15.528Z,13.05
2019-05-21T01:41:44.073Z,13.04
2019-05-21T01:44:15.435Z,13.03
2019-05-21T01:46:46.782Z,13.01
2019-05-21T01:49:15.484Z,13.02
2019-05-21T01:51:44.097Z,12.97
2019-05-21T01:54:12.523Z,13.00
2019-05-21T01:56:40.932Z,13.00
2019-05-21T01:59:09.388Z,13.00
2019-05-21T02:01:37.883Z,13.00
2019-05-21T02:04:06.659Z,13.01
2019-05-21T02:06:36.574Z,13.01
2019-05-21T02:09:07.581Z,13.04
2019-05-21T02:11:36.007Z,12.96
2019-05-21T02:14:04.799Z,13.06
2019-05-21T02:16:34.733Z,13.05
2019-05-21T02:19:03.211Z,13.07
2019-05-21T02:21:31.635Z,13.09
2019-05-21T02:24:00.057Z,13.10
2019-05-21T02:26:29.968Z,13.10
2019-05-21T02:29:00.044Z,13.09
2019-05-21T02:31:28.543Z,13.09
2019-05-21T02:33:56.963Z,13.10
2019-05-21T02:36:25.405Z,13.12
2019-05-21T02:38:53.915Z,13.14
2019-05-21T02:41:22.333Z,13.13
2019-05-21T02:43:50.826Z,13.15
2019-05-21T02:46:19.460Z,13.16
2019-05-21T02:48:47.967Z,13.16
2019-05-21T02:51:18.134Z,13.15
2019-05-21T02:53:46.521Z,13.16
2019-05-21T02:56:15.199Z,13.15
2019-05-21T02:58:43.614Z,13.15
2019-05-21T03:01:21.226Z,13.17
2019-05-21T03:03:50.088Z,13.17
2019-05-21T03:06:18.751Z,13.17
2019-05-21T03:08:47.248Z,13.17
2019-05-21T03:11:15.685Z,13.16
2019-05-21T03:13:44.141Z,13.17
2019-05-21T03:16:12.559Z,13.07
2019-05-21T03:18:40.972Z,13.17
2019-05-21T03:21:09.377Z,13.17
2019-05-21T03:23:37.794Z,13.19
2019-05-21T03:26:08.453Z,13.21
2019-05-21T03:28:39.830Z,13.19
2019-05-21T03:31:08.412Z,13.20
2019-05-21T03:33:36.824Z,13.19
2019-05-21T03:36:05.217Z,13.18
2019-05-21T03:38:33.647Z,13.18
2019-05-21T03:41:02.338Z,13.17
2019-05-21T03:43:30.709Z,13.09
2019-05-21T03:45:59.143Z,13.21
2019-05-21T03:48:27.514Z,13.19
2019-05-21T03:50:58.695Z,13.19
2019-05-21T03:53:31.681Z,13.09
2019-05-21T03:56:00.116Z,13.19
2019-05-21T03:58:28.529Z,13.18
2019-05-21T04:00:57.015Z,13.22
2019-05-21T04:03:27.991Z,13.25
2019-05-21T04:05:57.938Z,13.27
2019-05-21T04:08:26.335Z,13.27
2019-05-21T04:10:54.752Z,13.26
2019-05-21T04:13:24.827Z,13.26
2019-05-21T04:16:07.012Z,13.24
2019-05-21T04:18:42.805Z,13.21
2019-05-21T04:21:11.253Z,13.16
2019-05-21T04:23:39.671Z,13.12
2019-05-21T04:26:08.082Z,13.07
2019-05-21T04:28:36.527Z,13.03
2019-05-21T04:31:05.001Z,12.97
2019-05-21T04:33:33.708Z,12.93
2019-05-21T04:36:02.150Z,12.88
2019-05-21T04:38:30.649Z,12.85
2019-05-21T04:40:59.336Z,12.81
2019-05-21T04:43:27.800Z,12.79
2019-05-21T04:45:56.240Z,12.78
2019-05-21T04:48:24.645Z,12.75
2019-05-21T04:50:53.094Z,12.72
2019-05-21T04:53:23.151Z,12.70
2019-05-21T04:55:51.662Z,12.70
2019-05-21T04:58:20.486Z,12.69
2019-05-21T05:00:52.159Z,12.67
2019-05-21T05:03:20.654Z,12.66
2019-05-21T05:05:49.509Z,12.65
2019-05-21T05:08:19.577Z,12.63
2019-05-21T05:10:49.411Z,12.62
2019-05-21T05:13:18.280Z,12.62
2019-05-21T05:15:46.713Z,12.62
2019-05-21T05:18:15.569Z,12.61
2019-05-21T05:20:44.055Z,12.61
2019-05-21T05:23:14.509Z,12.63
2019-05-21T05:25:42.946Z,12.65
2019-05-21T05:28:11.617Z,12.66
2019-05-21T05:30:40.041Z,12.66
2019-05-21T05:33:08.455Z,12.67
2019-05-21T05:35:38.506Z,12.66
2019-05-21T05:38:06.967Z,12.67
2019-05-21T05:40:35.417Z,12.67
2019-05-21T05:43:04.461Z,12.67
2019-05-21T05:45:32.895Z,12.54
2019-05-21T05:48:01.327Z,12.63
2019-05-21T05:50:39.899Z,12.62
2019-05-21T05:53:08.329Z,12.62
2019-05-21T05:55:36.966Z,12.62
2019-05-21T05:58:05.505Z,12.62
2019-05-21T06:00:34.063Z,12.64
2019-05-21T06:03:02.748Z,12.64
2019-05-21T06:05:31.146Z,12.65
2019-05-21T06:08:00.516Z,12.66
2019-05-21T06:10:29.479Z,12.66
2019-05-21T06:12:58.076Z,12.69
2019-05-21T06:15:26.492Z,12.68
2019-05-21T06:17:54.922Z,12.68
2019-05-21T06:20:23.923Z,12.68
2019-05-21T06:22:52.330Z,12.70
2019-05-21T06:25:21.940Z,12.71
2019-05-21T06:27:50.349Z,12.76
2019-05-21T06:30:19.091Z,12.78
2019-05-21T06:32:47.726Z,12.80
2019-05-21T06:35:16.429Z,12.83
2019-05-21T06:37:44.841Z,12.88
2019-05-21T06:40:14.040Z,12.89
2019-05-21T06:42:42.446Z,12.90
2019-05-21T06:45:11.557Z,12.93
2019-05-21T06:47:42.788Z,12.94
2019-05-21T06:50:11.590Z,12.94
2019-05-21T06:52:40.123Z,12.97
2019-05-21T06:55:11.532Z,12.98
2019-05-21T06:57:39.928Z,13.01
2019-05-21T07:00:10.302Z,13.03
2019-05-21T07:02:38.702Z,13.04
2019-05-21T07:05:08.779Z,13.05
2019-05-21T07:07:37.297Z,13.06
2019-05-21T07:10:07.834Z,13.07
2019-05-21T07:12:36.278Z,13.05
2019-05-21T07:15:06.850Z,13.05
2019-05-21T07:17:35.299Z,13.04
2019-05-21T07:20:07.639Z,13.05
2019-05-21T07:22:36.321Z,13.01
2019-05-21T07:25:07.019Z,13.04
2019-05-21T07:27:43.716Z,13.07
2019-05-21T07:30:12.374Z,13.02
2019-05-21T07:32:40.834Z,13.00
2019-05-21T07:35:11.022Z,12.97
2019-05-21T07:37:39.606Z,12.95
2019-05-21T07:40:09.131Z,12.93
2019-05-21T07:42:37.573Z,12.91
2019-05-21T07:45:07.423Z,12.92
2019-05-21T07:47:35.910Z,12.90
2019-05-21T07:50:07.325Z,12.93
2019-05-21T07:52:35.788Z,12.95
2019-05-21T07:55:05.531Z,13.00
2019-05-21T07:57:33.954Z,12.85
2019-05-21T08:00:02.348Z,12.97
2019-05-21T08:02:30.863Z,12.95
2019-05-21T08:05:02.521Z,12.95
2019-05-21T08:07:31.315Z,12.95
2019-05-21T08:09:59.697Z,12.91
2019-05-21T08:12:39.117Z,12.92
2019-05-21T08:14:58.238Z,12.93
2019-05-21T08:17:26.699Z,12.92
2019-05-21T08:19:55.162Z,12.93
2019-05-21T08:22:23.554Z,12.93
2019-05-21T08:24:51.948Z,12.92
2019-05-21T08:27:20.354Z,12.94
2019-05-21T08:29:48.725Z,12.93
2019-05-21T08:32:19.848Z,12.95
2019-05-21T08:34:48.250Z,12.92
2019-05-21T08:37:16.797Z,12.93
2019-05-21T08:39:48.190Z,12.98
2019-05-21T08:42:16.964Z,13.05
2019-05-21T08:44:45.366Z,13.08
2019-05-21T08:47:14.067Z,13.07
2019-05-21T08:49:44.287Z,13.02
2019-05-21T08:52:12.648Z,13.00
2019-05-21T08:54:48.051Z,13.00
2019-05-21T08:57:18.165Z,13.02
2019-05-21T08:59:46.748Z,13.05
2019-05-21T09:02:16.193Z,13.06
2019-05-21T09:04:47.866Z,13.06
2019-05-21T09:07:16.490Z,13.14
2019-05-21T09:09:50.477Z,13.19
2019-05-21T09:12:15.740Z,13.16
2019-05-21T09:14:44.525Z,13.15
2019-05-21T09:17:12.924Z,13.17
2019-05-21T09:19:41.306Z,13.16
2019-05-21T09:22:09.814Z,13.22
2019-05-21T09:24:38.236Z,13.17
2019-05-21T09:27:06.925Z,13.16
2019-05-21T09:29:35.430Z,13.15
2019-05-21T09:32:04.361Z,13.13
2019-05-21T09:34:47.459Z,12.99
2019-05-21T09:37:18.163Z,13.10
2019-05-21T09:39:33.623Z,13.10
2019-05-21T09:42:02.258Z,13.09
2019-05-21T09:44:31.014Z,13.08
2019-05-21T09:46:59.431Z,13.06
2019-05-21T09:49:27.946Z,13.05
2019-05-21T09:51:56.322Z,13.03
2019-05-21T09:54:24.723Z,13.02
2019-05-21T09:56:53.102Z,13.02
2019-05-21T09:59:26.035Z,13.03
2019-05-21T10:02:12.563Z,13.06
2019-05-21T10:04:41.078Z,13.06
2019-05-21T10:07:09.549Z,13.03
2019-05-21T10:09:37.952Z,13.00
2019-05-21T10:12:08.039Z,13.02
2019-05-21T10:14:36.464Z,13.02
2019-05-21T10:17:05.275Z,13.04
2019-05-21T10:19:33.795Z,13.07
2019-05-21T10:22:02.193Z,13.11
2019-05-21T10:24:30.621Z,13.16
2019-05-21T10:26:59.157Z,13.19
2019-05-21T10:29:27.519Z,13.19
2019-05-21T10:31:55.922Z,13.23
2019-05-21T10:34:24.325Z,13.23
2019-05-21T10:36:53.011Z,13.27
2019-05-21T10:39:21.433Z,13.32
2019-05-21T10:41:49.813Z,13.36
2019-05-21T10:44:19.817Z,13.36
2019-05-21T10:46:48.653Z,13.34
2019-05-21T10:49:17.062Z,13.37
2019-05-21T10:52:16.129Z,13.44
2019-05-21T10:54:46.099Z,13.43
2019-05-21T10:57:14.509Z,13.44
2019-05-21T10:59:42.950Z,13.35
2019-05-21T11:02:21.531Z,13.37
2019-05-21T11:04:51.709Z,13.39
2019-05-21T11:07:20.374Z,13.38
2019-05-21T11:09:48.845Z,13.40
2019-05-21T11:12:17.233Z,13.42
2019-05-21T11:14:45.684Z,13.44
2019-05-21T11:17:14.058Z,13.50
2019-05-21T11:19:42.631Z,13.50
2019-05-21T11:22:11.104Z,13.54
2019-05-21T11:24:39.495Z,13.59
2019-05-21T11:27:07.916Z,13.57
2019-05-21T11:29:36.349Z,13.57
2019-05-21T11:32:05.259Z,13.61
2019-05-21T11:34:33.696Z,13.59
2019-05-21T11:37:02.364Z,13.85
2019-05-21T11:39:30.752Z,13.75
2019-05-21T11:41:59.545Z,13.67
2019-05-21T11:44:27.951Z,13.59
2019-05-21T11:46:56.358Z,13.52
2019-05-21T11:49:24.748Z,13.49
2019-05-21T11:51:54.600Z,13.47
2019-05-21T11:54:22.987Z,13.49
2019-05-21T11:56:51.410Z,13.46
2019-05-21T11:59:19.837Z,13.41
2019-05-21T12:01:48.386Z,13.41
2019-05-21T12:04:17.039Z,13.41
2019-05-21T12:06:45.817Z,13.41
2019-05-21T12:09:14.275Z,13.44
2019-05-21T12:11:42.771Z,13.47
2019-05-21T12:14:12.915Z,13.51
2019-05-21T12:16:41.373Z,13.39
2019-05-21T12:19:09.775Z,13.46
2019-05-21T12:21:41.128Z,13.43
2019-05-21T12:24:09.654Z,13.40
2019-05-21T12:26:38.058Z,13.38
2019-05-21T12:29:06.513Z,13.37
2019-05-21T12:31:34.922Z,13.38
2019-05-21T12:34:03.338Z,13.37
2019-05-21T12:36:31.778Z,13.21
2019-05-21T12:39:13.104Z,13.39
2019-05-21T12:41:30.420Z,13.38
2019-05-21T12:43:58.923Z,13.40
2019-05-21T12:46:30.062Z,13.37
2019-05-21T12:48:58.504Z,13.38
2019-05-21T12:51:28.189Z,13.36
2019-05-21T12:53:56.497Z,13.28
2019-05-21T12:56:24.998Z,13.33
2019-05-21T12:58:53.483Z,13.31
2019-05-21T13:01:21.865Z,13.26
2019-05-21T13:03:50.265Z,13.21
2019-05-21T13:06:20.127Z,13.20
2019-05-21T13:08:48.549Z,13.18
2019-05-21T13:11:17.144Z,13.13
2019-05-21T13:13:45.743Z,13.15
2019-05-21T13:16:14.142Z,13.12
2019-05-21T13:18:42.559Z,13.12
2019-05-21T13:21:11.783Z,13.12
2019-05-21T13:23:41.813Z,13.11
2019-05-21T13:26:10.348Z,13.11
2019-05-21T13:28:39.051Z,13.11
2019-05-21T13:31:07.611Z,13.11
2019-05-21T13:33:36.054Z,13.08
2019-05-21T13:36:04.658Z,13.08
2019-05-21T13:38:33.063Z,13.10
2019-05-21T13:41:01.995Z,13.10
2019-05-21T13:43:30.402Z,13.12
2019-05-21T13:45:58.899Z,13.13
2019-05-21T13:48:27.404Z,13.16
2019-05-21T13:50:57.547Z,13.20
2019-05-21T13:53:26.033Z,13.21
2019-05-21T13:55:54.467Z,13.21
2019-05-21T13:58:22.853Z,13.30
2019-05-21T14:00:52.908Z,13.33
2019-05-21T14:03:21.686Z,13.32
2019-05-21T14:05:50.094Z,13.32
2019-05-21T14:08:18.494Z,13.35
2019-05-21T14:10:48.666Z,13.36
2019-05-21T14:13:17.251Z,13.34
2019-05-21T14:15:45.789Z,13.32
2019-05-21T14:18:14.198Z,13.33
2019-05-21T14:20:44.027Z,13.33
2019-05-21T14:23:12.634Z,13.30
2019-05-21T14:25:41.167Z,13.31
2019-05-21T14:28:09.791Z,13.31
2019-05-21T14:30:38.434Z,13.29
2019-05-21T14:33:07.078Z,13.29
2019-05-21T14:35:37.127Z,13.29
2019-05-21T14:38:05.541Z,13.30
2019-05-21T14:40:34.106Z,13.24
2019-05-21T14:43:02.507Z,13.24
2019-05-21T14:45:34.151Z,13.22
2019-05-21T14:48:01.444Z,13.19
2019-05-21T14:50:29.975Z,13.15
2019-05-21T14:52:58.843Z,13.14
2019-05-21T14:55:27.293Z,13.10
2019-05-21T14:57:58.748Z,13.09
2019-05-21T15:00:28.563Z,13.07
2019-05-21T15:02:56.980Z,13.04
2019-05-21T15:05:25.797Z,13.03
2019-05-21T15:07:54.585Z,13.01
2019-05-21T15:10:23.180Z,12.83
2019-05-21T15:12:51.577Z,12.98
2019-05-21T15:15:20.379Z,12.97
2019-05-21T15:17:48.771Z,12.97
2019-05-21T15:20:22.010Z,12.96
2019-05-21T15:22:51.446Z,12.95
2019-05-21T15:25:19.958Z,12.96
2019-05-21T15:27:49.989Z,12.95
2019-05-21T15:30:19.225Z,12.94
2019-05-21T15:32:47.652Z,12.95
2019-05-21T15:35:16.069Z,12.93
2019-05-21T15:37:45.315Z,12.93
2019-05-21T15:40:16.071Z,12.93
2019-05-21T15:42:44.673Z,12.83
2019-05-21T15:45:14.916Z,12.95
2019-05-21T15:47:43.614Z,12.95
2019-05-21T15:50:13.817Z,12.95
2019-05-21T15:52:42.331Z,12.80
2019-05-21T15:55:11.183Z,12.98
2019-05-21T15:57:40.265Z,12.98
2019-05-21T16:00:11.139Z,12.99
2019-05-21T16:02:39.740Z,12.88
2019-05-21T16:05:08.293Z,12.97
2019-05-21T16:07:36.861Z,12.96
2019-05-21T16:10:08.541Z,12.96
2019-05-21T16:12:38.985Z,12.95
2019-05-21T16:15:08.003Z,12.87
2019-05-21T16:17:36.514Z,12.97
2019-05-21T16:20:08.512Z,12.96
2019-05-21T16:22:37.104Z,12.87
2019-05-21T16:25:07.319Z,12.76
2019-05-21T16:27:36.790Z,12.92
2019-05-21T16:30:08.965Z,12.93
2019-05-21T16:32:37.470Z,12.97
2019-05-21T16:35:07.602Z,12.97
2019-05-21T16:37:36.043Z,12.97
2019-05-21T16:40:06.822Z,13.00
2019-05-21T16:42:35.364Z,13.00
2019-05-21T16:45:06.487Z,13.00
2019-05-21T16:47:44.469Z,12.85
2019-05-21T16:50:08.842Z,12.82
2019-05-21T16:52:38.430Z,12.99
2019-05-21T16:55:10.543Z,12.96
2019-05-21T16:57:38.982Z,12.95
2019-05-21T17:00:10.679Z,12.94
2019-05-21T17:02:40.877Z,12.94
2019-05-21T17:05:09.400Z,12.95
2019-05-21T17:07:38.672Z,12.96
2019-05-21T17:10:07.951Z,12.97
2019-05-21T17:12:37.158Z,12.98
2019-05-21T17:15:08.902Z,12.97
2019-05-21T17:17:37.687Z,12.97
2019-05-21T17:20:08.573Z,12.97
2019-05-21T17:22:37.125Z,12.95
2019-05-21T17:25:07.004Z,12.97
2019-05-21T17:27:35.900Z,12.98
2019-05-21T17:30:07.535Z,13.01
2019-05-21T17:32:38.893Z,13.03
2019-05-21T17:35:08.722Z,13.04
2019-05-21T17:37:40.242Z,13.08
2019-05-21T17:40:09.362Z,13.08
2019-05-21T17:42:37.990Z,13.08
2019-05-21T17:45:09.301Z,13.07
2019-05-21T17:47:37.937Z,13.08
2019-05-21T17:50:07.528Z,13.05
2019-05-21T17:52:37.625Z,13.03
2019-05-21T17:55:06.964Z,13.02
2019-05-21T17:57:35.649Z,13.00
2019-05-21T18:00:07.109Z,12.97
2019-05-21T18:02:35.648Z,12.89
2019-05-21T18:05:07.799Z,12.92
2019-05-21T18:07:37.547Z,12.81
2019-05-21T18:10:09.566Z,12.86
2019-05-21T18:12:39.171Z,12.83
2019-05-21T18:15:11.392Z,12.81
2019-05-21T18:17:41.444Z,12.82
2019-05-21T18:20:10.849Z,12.81
2019-05-21T18:22:40.345Z,12.78
2019-05-21T18:25:10.030Z,12.78
2019-05-21T18:27:39.113Z,12.78
2019-05-21T18:30:08.653Z,12.76
2019-05-21T18:32:37.412Z,12.75
2019-05-21T18:35:09.021Z,12.73
2019-05-21T18:37:39.187Z,12.74
2019-05-21T18:40:09.889Z,12.73
2019-05-21T18:42:38.404Z,12.72
2019-05-21T18:45:07.494Z,12.71
2019-05-21T18:47:36.181Z,12.71
2019-05-21T18:50:07.414Z,12.72
2019-05-21T18:52:35.939Z,12.72
2019-05-21T18:55:05.744Z,12.71
2019-05-21T18:57:34.414Z,12.71
2019-05-21T19:00:04.282Z,12.71
2019-05-21T19:02:32.781Z,12.72
2019-05-21T19:05:01.368Z,12.72
2019-05-21T19:07:30.103Z,12.70
2019-05-21T19:10:00.844Z,12.73
2019-05-21T19:12:37.361Z,12.73
2019-05-21T19:14:58.995Z,12.74
2019-05-21T19:17:35.047Z,12.72
2019-05-21T19:19:57.815Z,12.73
2019-05-21T19:22:27.681Z,12.74
2019-05-21T19:24:56.217Z,12.74
2019-05-21T19:27:25.032Z,12.74
2019-05-21T19:29:53.691Z,12.74
2019-05-21T19:32:22.270Z,12.78
2019-05-21T19:34:50.771Z,12.75
2019-05-21T19:37:20.766Z,12.79
2019-05-21T19:39:49.218Z,12.79
2019-05-21T19:42:17.645Z,12.76
2019-05-21T19:44:46.299Z,12.75
2019-05-21T19:47:14.707Z,12.74
2019-05-21T19:49:43.177Z,12.72
2019-05-21T19:52:11.767Z,12.69
2019-05-21T19:54:40.806Z,12.66
2019-05-21T19:57:09.265Z,12.67
2019-05-21T19:59:37.685Z,12.68
2019-05-21T20:02:07.810Z,12.68
2019-05-21T20:04:36.495Z,12.67
2019-05-21T20:07:06.912Z,12.67
2019-05-21T20:09:37.502Z,12.65
2019-05-21T20:12:07.787Z,12.62
2019-05-21T20:14:36.941Z,12.63
2019-05-21T20:17:05.406Z,12.66
2019-05-21T20:19:34.106Z,12.66
2019-05-21T20:22:04.593Z,12.66
2019-05-21T20:24:33.074Z,12.66
2019-05-21T20:27:04.494Z,12.66
2019-05-21T20:29:33.358Z,12.63
2019-05-21T20:32:02.490Z,12.60
2019-05-21T20:34:31.011Z,12.59
2019-05-21T20:36:59.674Z,12.58
2019-05-21T20:39:29.986Z,12.57
2019-05-21T20:41:59.028Z,12.56
2019-05-21T20:44:28.031Z,12.55
2019-05-21T20:46:57.399Z,12.55
2019-05-21T20:49:27.603Z,12.55
2019-05-21T20:51:56.392Z,12.55
2019-05-21T20:54:26.049Z,12.55
2019-05-21T20:56:54.598Z,12.56
2019-05-21T20:59:23.314Z,12.57
2019-05-21T21:01:53.041Z,12.56
2019-05-21T21:04:22.996Z,12.55
2019-05-21T21:06:52.367Z,12.55
2019-05-21T21:09:21.416Z,12.55
2019-05-21T21:11:50.012Z,12.57
2019-05-21T21:14:21.722Z,12.60
2019-05-21T21:16:51.800Z,12.61
2019-05-21T21:19:20.595Z,12.61
2019-05-21T21:21:50.576Z,12.57
2019-05-21T21:24:19.383Z,12.54
2019-05-21T21:26:48.898Z,12.51
2019-05-21T21:29:17.375Z,12.48
2019-05-21T21:31:47.616Z,12.47
2019-05-21T21:34:16.230Z,12.47
2019-05-21T21:36:45.312Z,12.46
2019-05-21T21:39:14.407Z,12.45
2019-05-21T21:41:43.856Z,12.44
2019-05-21T21:44:12.377Z,12.43
2019-05-21T21:46:41.470Z,12.42
2019-05-21T21:49:10.549Z,12.42
2019-05-21T21:51:39.081Z,12.41
2019-05-21T21:54:09.005Z,12.41
2019-05-21T21:56:37.411Z,12.41
2019-05-21T21:59:06.177Z,12.40
2019-05-21T22:01:44.310Z,12.39
2019-05-21T22:04:16.730Z,12.42
2019-05-21T22:06:47.125Z,12.39
2019-05-21T22:09:17.425Z,12.42
2019-05-21T22:11:47.215Z,12.42
2019-05-21T22:14:17.251Z,12.40
2019-05-21T22:16:46.881Z,12.41
2019-05-21T22:19:15.858Z,12.40
2019-05-21T22:21:46.066Z,12.41
2019-05-21T22:24:14.936Z,12.41
2019-05-21T22:26:43.447Z,12.41
2019-05-21T22:29:12.875Z,12.40
2019-05-21T22:31:41.727Z,12.40
2019-05-21T22:34:10.447Z,12.40
2019-05-21T22:36:39.010Z,12.41
2019-05-21T22:39:09.764Z,12.42
2019-05-21T22:41:38.172Z,12.41
2019-05-21T22:44:06.934Z,12.40
2019-05-21T22:46:36.851Z,12.41
2019-05-21T22:49:05.421Z,12.41
2019-05-21T22:51:34.010Z,12.41
2019-05-21T22:54:02.464Z,12.41
2019-05-21T22:56:31.144Z,12.41
2019-05-21T22:58:59.529Z,12.41
2019-05-21T23:01:30.015Z,12.40
2019-05-21T23:04:00.492Z,12.41
2019-05-21T23:06:29.301Z,12.43
2019-05-21T23:08:57.791Z,12.43
2019-05-21T23:11:26.226Z,12.41
2019-05-21T23:13:54.789Z,12.41
2019-05-21T23:16:23.483Z,12.42
2019-05-21T23:18:52.676Z,12.42
2019-05-21T23:21:23.007Z,12.43
2019-05-21T23:23:53.245Z,12.44
2019-05-21T23:26:24.298Z,12.46
2019-05-21T23:28:54.299Z,12.45
2019-05-21T23:31:22.967Z,12.46
2019-05-21T23:33:51.555Z,12.44
2019-05-21T23:36:20.224Z,12.45
2019-05-21T23:38:49.931Z,12.45
2019-05-21T23:41:20.190Z,12.45
2019-05-21T23:43:49.431Z,12.47
2019-05-21T23:46:18.684Z,12.47
2019-05-21T23:48:47.257Z,12.47
2019-05-21T23:51:15.797Z,12.46
2019-05-21T23:53:44.345Z,12.46
2019-05-21T23:56:12.849Z,12.44
2019-05-21T23:58:42.021Z,12.44
